Terminal Aerodrome Forecast
Issued by NWS Tallahassee, FL

Home | Current Version | Previous Version | Text Only | Print | Product List | Glossary On
Versions: 1 2 3 4 5 6 7 8 9 10 11 12 13 14 15 16 17 18 19 20 21
268
FTUS42 KTAE 181738
TAFTLH
TAF
KTLH 181738Z 1818/1918 18005KT P6SM SCT015 BKN050
     FM190000 00000KT P6SM SCT050
     FM190900 00000KT 1/2SM FG OVC001
     FM191500 VRB04KT P6SM SCT006 BKN015=

USA.gov is the U.S. government's official web portal to all federal, state and local government web resources and services.